sensor_id;sensor_type;location;lat;lon;timestamp;P1;P2;P0
77692;PMS5003;66984;47.404;18.836;2023-06-22T00:00:51;21.00;21.00;9.00
77692;PMS5003;66984;47.404;18.836;2023-06-22T00:01:56;20.25;19.00;8.25
77692;PMS5003;66984;47.404;18.836;2023-06-22T00:03:05;22.00;20.00;8.00
77692;PMS5003;66984;47.404;18.836;2023-06-22T00:04:08;21.00;19.00;8.25
77692;PMS5003;66984;47.404;18.836;2023-06-22T00:05:11;21.00;18.00;9.00
77692;PMS5003;66984;47.404;18.836;2023-06-22T00:06:14;22.50;20.00;9.00
77692;PMS5003;66984;47.404;18.836;2023-06-22T00:07:24;21.00;19.75;8.50
77692;PMS5003;66984;47.404;18.836;2023-06-22T00:08:33;21.50;21.00;10.00
77692;PMS5003;66984;47.404;18.836;2023-06-22T00:09:42;23.00;21.75;10.00
77692;PMS5003;66984;47.404;18.836;2023-06-22T00:10:52;23.00;21.00;11.00
77692;PMS5003;66984;47.404;18.836;2023-06-22T00:11:55;21.00;21.00;9.00
77692;PMS5003;66984;47.404;18.836;2023-06-22T00:12:58;19.00;19.00;9.00
77692;PMS5003;66984;47.404;18.836;2023-06-22T00:14:01;21.00;21.00;8.75
77692;PMS5003;66984;47.404;18.836;2023-06-22T00:15:04;20.00;20.00;9.25
77692;PMS5003;66984;47.404;18.836;2023-06-22T00:16:14;22.00;21.00;9.00
77692;PMS5003;66984;47.404;18.836;2023-06-22T00:17:17;24.50;22.25;10.00
77692;PMS5003;66984;47.404;18.836;2023-06-22T00:18:20;24.50;21.00;12.00
77692;PMS5003;66984;47.404;18.836;2023-06-22T00:19:23;19.75;19.00;9.50
77692;PMS5003;66984;47.404;18.836;2023-06-22T00:20:26;20.25;20.00;9.00
77692;PMS5003;66984;47.404;18.836;2023-06-22T00:21:39;20.50;20.00;8.00
77692;PMS5003;66984;47.404;18.836;2023-06-22T00:22:42;20.50;20.25;8.00
77692;PMS5003;66984;47.404;18.836;2023-06-22T00:23:46;18.50;18.00;7.75
77692;PMS5003;66984;47.404;18.836;2023-06-22T00:24:49;19.00;19.00;8.00
77692;PMS5003;66984;47.404;18.836;2023-06-22T00:25:52;21.25;21.00;9.00
77692;PMS5003;66984;47.404;18.836;2023-06-22T00:27:01;20.00;19.00;7.00
77692;PMS5003;66984;47.404;18.836;2023-06-22T00:28:05;18.00;17.00;8.00
77692;PMS5003;66984;47.404;18.836;2023-06-22T00:29:08;17.00;16.00;7.00
77692;PMS5003;66984;47.404;18.836;2023-06-22T00:30:11;18.50;18.25;7.25
77692;PMS5003;66984;47.404;18.836;2023-06-22T00:31:14;18.00;18.00;7.50
77692;PMS5003;66984;47.404;18.836;2023-06-22T00:32:23;19.50;19.00;8.00
77692;PMS5003;66984;47.404;18.836;2023-06-22T00:33:26;20.25;19.25;8.00
77692;PMS5003;66984;47.404;18.836;2023-06-22T00:34:30;20.00;20.00;7.00
77692;PMS5003;66984;47.404;18.836;2023-06-22T00:35:33;20.00;20.00;7.00
77692;PMS5003;66984;47.404;18.836;2023-06-22T00:36:36;19.25;19.25;8.00
77692;PMS5003;66984;47.404;18.836;2023-06-22T00:37:45;21.00;21.00;8.00
77692;PMS5003;66984;47.404;18.836;2023-06-22T00:38:48;21.00;20.00;9.00
77692;PMS5003;66984;47.404;18.836;2023-06-22T00:39:53;20.00;18.75;9.00
77692;PMS5003;66984;47.404;18.836;2023-06-22T00:41:02;21.75;20.75;10.00
77692;PMS5003;66984;47.404;18.836;2023-06-22T00:42:05;24.00;23.00;10.25
77692;PMS5003;66984;47.404;18.836;2023-06-22T00:43:08;22.00;21.50;9.00
77692;PMS5003;66984;47.404;18.836;2023-06-22T00:44:11;20.00;20.00;10.00
77692;PMS5003;66984;47.404;18.836;2023-06-22T00:45:14;20.00;19.00;8.00
77692;PMS5003;66984;47.404;18.836;2023-06-22T00:46:24;19.50;18.50;8.50
77692;PMS5003;66984;47.404;18.836;2023-06-22T00:47:27;22.00;19.00;9.75
77692;PMS5003;66984;47.404;18.836;2023-06-22T00:48:30;21.25;20.00;9.00
77692;PMS5003;66984;47.404;18.836;2023-06-22T00:49:34;21.00;20.00;8.00
77692;PMS5003;66984;47.404;18.836;2023-06-22T00:50:37;21.50;21.00;8.00
77692;PMS5003;66984;47.404;18.836;2023-06-22T00:51:47;20.00;20.00;8.00
77692;PMS5003;66984;47.404;18.836;2023-06-22T00:52:52;20.75;19.00;8.00
77692;PMS5003;66984;47.404;18.836;2023-06-22T00:53:56;18.75;18.00;8.00
77692;PMS5003;66984;47.404;18.836;2023-06-22T00:54:58;19.00;19.00;9.00
77692;PMS5003;66984;47.404;18.836;2023-06-22T00:56:04;18.00;18.00;8.00
77692;PMS5003;66984;47.404;18.836;2023-06-22T00:57:14;21.00;18.75;8.00
77692;PMS5003;66984;47.404;18.836;2023-06-22T00:58:18;22.00;18.75;8.00
77692;PMS5003;66984;47.404;18.836;2023-06-22T00:59:24;20.50;19.00;8.00
77692;PMS5003;66984;47.404;18.836;2023-06-22T01:00:28;22.00;21.50;8.75
77692;PMS5003;66984;47.404;18.836;2023-06-22T01:01:32;19.00;19.00;7.50
77692;PMS5003;66984;47.404;18.836;2023-06-22T01:02:43;17.00;17.00;6.50
77692;PMS5003;66984;47.404;18.836;2023-06-22T01:03:49;19.00;18.00;7.25
77692;PMS5003;66984;47.404;18.836;2023-06-22T01:04:53;20.00;17.00;6.25
77692;PMS5003;66984;47.404;18.836;2023-06-22T01:05:59;19.00;19.00;6.50
77692;PMS5003;66984;47.404;18.836;2023-06-22T01:07:31;17.75;17.75;6.00
77692;PMS5003;66984;47.404;18.836;2023-06-22T01:09:29;18.00;18.00;8.00
77692;PMS5003;66984;47.404;18.836;2023-06-22T01:10:23;22.25;19.25;8.50
77692;PMS5003;66984;47.404;18.836;2023-06-22T01:11:37;19.00;18.75;7.00
77692;PMS5003;66984;47.404;18.836;2023-06-22T01:12:45;18.00;17.50;6.00
77692;PMS5003;66984;47.404;18.836;2023-06-22T01:14:04;17.00;17.00;7.00
77692;PMS5003;66984;47.404;18.836;2023-06-22T01:15:16;18.00;18.00;7.50
77692;PMS5003;66984;47.404;18.836;2023-06-22T01:16:33;19.00;18.00;7.75
77692;PMS5003;66984;47.404;18.836;2023-06-22T01:17:38;18.00;17.00;6.25
77692;PMS5003;66984;47.404;18.836;2023-06-22T01:18:45;18.00;18.00;7.25
77692;PMS5003;66984;47.404;18.836;2023-06-22T01:19:57;19.75;18.00;7.00
77692;PMS5003;66984;47.404;18.836;2023-06-22T01:21:04;18.25;15.50;7.00
77692;PMS5003;66984;47.404;18.836;2023-06-22T01:22:10;19.25;16.50;6.75
77692;PMS5003;66984;47.404;18.836;2023-06-22T01:25:13;17.00;16.00;5.00
77692;PMS5003;66984;47.404;18.836;2023-06-22T01:27:58;19.25;19.00;8.00
77692;PMS5003;66984;47.404;18.836;2023-06-22T01:29:17;21.00;19.00;8.00
77692;PMS5003;66984;47.404;18.836;2023-06-22T01:30:29;20.00;18.00;6.00
77692;PMS5003;66984;47.404;18.836;2023-06-22T01:31:33;18.00;16.75;6.50
77692;PMS5003;66984;47.404;18.836;2023-06-22T01:32:38;18.00;17.00;7.00
77692;PMS5003;66984;47.404;18.836;2023-06-22T01:33:43;18.00;17.00;7.00
77692;PMS5003;66984;47.404;18.836;2023-06-22T01:34:49;19.00;18.00;7.75
77692;PMS5003;66984;47.404;18.836;2023-06-22T01:35:59;19.00;17.00;7.00
77692;PMS5003;66984;47.404;18.836;2023-06-22T01:37:03;16.50;15.50;6.00
77692;PMS5003;66984;47.404;18.836;2023-06-22T01:38:07;20.00;18.00;7.75
77692;PMS5003;66984;47.404;18.836;2023-06-22T01:39:12;20.00;18.00;8.00
77692;PMS5003;66984;47.404;18.836;2023-06-22T01:40:16;18.00;17.00;7.50
77692;PMS5003;66984;47.404;18.836;2023-06-22T01:41:28;18.75;18.25;8.00
77692;PMS5003;66984;47.404;18.836;2023-06-22T01:42:39;20.00;19.00;8.00
77692;PMS5003;66984;47.404;18.836;2023-06-22T01:43:42;19.00;18.75;8.00
77692;PMS5003;66984;47.404;18.836;2023-06-22T01:44:46;19.75;19.00;7.00
77692;PMS5003;66984;47.404;18.836;2023-06-22T01:45:49;18.75;18.00;7.00
77692;PMS5003;66984;47.404;18.836;2023-06-22T01:46:53;18.50;18.00;7.50
77692;PMS5003;66984;47.404;18.836;2023-06-22T01:48:04;19.00;18.00;8.00
77692;PMS5003;66984;47.404;18.836;2023-06-22T01:49:07;21.50;20.75;9.00
77692;PMS5003;66984;47.404;18.836;2023-06-22T01:50:11;21.00;21.00;8.00
77692;PMS5003;66984;47.404;18.836;2023-06-22T01:51:15;21.50;21.00;8.00
77692;PMS5003;66984;47.404;18.836;2023-06-22T01:52:18;21.25;19.75;9.00
77692;PMS5003;66984;47.404;18.836;2023-06-22T01:53:30;18.00;17.00;7.50
77692;PMS5003;66984;47.404;18.836;2023-06-22T01:54:33;18.00;18.00;7.00
77692;PMS5003;66984;47.404;18.836;2023-06-22T01:55:35;19.50;19.50;9.00
77692;PMS5003;66984;47.404;18.836;2023-06-22T01:56:38;19.00;18.00;8.00
77692;PMS5003;66984;47.404;18.836;2023-06-22T01:57:42;21.00;19.00;8.00
77692;PMS5003;66984;47.404;18.836;2023-06-22T01:58:55;20.25;19.00;8.50
77692;PMS5003;66984;47.404;18.836;2023-06-22T02:00:05;20.00;17.00;7.00
77692;PMS5003;66984;47.404;18.836;2023-06-22T02:01:14;19.00;16.00;6.00
77692;PMS5003;66984;47.404;18.836;2023-06-22T02:02:33;19.00;17.00;8.00
77692;PMS5003;66984;47.404;18.836;2023-06-22T02:03:42;21.50;19.50;8.00
77692;PMS5003;66984;47.404;18.836;2023-06-22T02:04:58;20.75;20.50;9.50
77692;PMS5003;66984;47.404;18.836;2023-06-22T02:06:05;23.00;20.00;9.00
77692;PMS5003;66984;47.404;18.836;2023-06-22T02:07:12;22.00;20.00;10.75
77692;PMS5003;66984;47.404;18.836;2023-06-22T02:08:31;21.00;20.00;10.00
77692;PMS5003;66984;47.404;18.836;2023-06-22T02:09:46;21.00;19.00;9.25
77692;PMS5003;66984;47.404;18.836;2023-06-22T02:10:53;20.00;19.25;9.00
77692;PMS5003;66984;47.404;18.836;2023-06-22T02:11:59;20.00;20.00;9.50
77692;PMS5003;66984;47.404;18.836;2023-06-22T02:13:10;20.50;18.50;8.25
77692;PMS5003;66984;47.404;18.836;2023-06-22T02:14:15;21.50;17.50;10.00
77692;PMS5003;66984;47.404;18.836;2023-06-22T02:15:20;22.50;20.00;9.00
77692;PMS5003;66984;47.404;18.836;2023-06-22T02:16:23;24.00;21.00;8.00
77692;PMS5003;66984;47.404;18.836;2023-06-22T02:17:26;21.00;19.75;8.25
77692;PMS5003;66984;47.404;18.836;2023-06-22T02:18:36;22.00;21.75;11.00
77692;PMS5003;66984;47.404;18.836;2023-06-22T02:19:42;23.00;22.00;11.75
77692;PMS5003;66984;47.404;18.836;2023-06-22T02:20:45;23.00;20.50;12.00
77692;PMS5003;66984;47.404;18.836;2023-06-22T02:21:48;22.00;21.00;11.00
77692;PMS5003;66984;47.404;18.836;2023-06-22T02:22:51;23.00;22.00;9.00
77692;PMS5003;66984;47.404;18.836;2023-06-22T02:24:01;22.75;22.50;9.25
77692;PMS5003;66984;47.404;18.836;2023-06-22T02:25:04;23.50;23.00;10.00
77692;PMS5003;66984;47.404;18.836;2023-06-22T02:26:07;21.00;21.00;8.75
77692;PMS5003;66984;47.404;18.836;2023-06-22T02:27:10;21.00;20.00;9.50
77692;PMS5003;66984;47.404;18.836;2023-06-22T02:28:13;24.00;23.50;13.00
77692;PMS5003;66984;47.404;18.836;2023-06-22T02:29:23;23.00;23.00;11.75
77692;PMS5003;66984;47.404;18.836;2023-06-22T02:30:35;22.00;21.00;11.00
77692;PMS5003;66984;47.404;18.836;2023-06-22T02:31:38;20.75;20.00;11.25
77692;PMS5003;66984;47.404;18.836;2023-06-22T02:32:41;22.25;22.00;11.00
77692;PMS5003;66984;47.404;18.836;2023-06-22T02:33:44;22.25;22.00;11.00
77692;PMS5003;66984;47.404;18.836;2023-06-22T02:34:54;21.00;21.00;10.00
77692;PMS5003;66984;47.404;18.836;2023-06-22T02:35:57;21.75;20.50;9.50
77692;PMS5003;66984;47.404;18.836;2023-06-22T02:36:59;23.50;22.00;11.00
77692;PMS5003;66984;47.404;18.836;2023-06-22T02:38:05;21.00;21.00;9.50
77692;PMS5003;66984;47.404;18.836;2023-06-22T02:39:08;21.00;20.25;9.00
77692;PMS5003;66984;47.404;18.836;2023-06-22T02:40:18;21.25;19.25;9.00
77692;PMS5003;66984;47.404;18.836;2023-06-22T02:41:21;22.00;20.00;8.00
77692;PMS5003;66984;47.404;18.836;2023-06-22T02:42:24;20.75;19.75;8.00
77692;PMS5003;66984;47.404;18.836;2023-06-22T02:43:27;18.00;18.00;8.00
77692;PMS5003;66984;47.404;18.836;2023-06-22T02:44:30;19.50;18.00;7.50
77692;PMS5003;66984;47.404;18.836;2023-06-22T02:45:39;20.00;18.00;7.00
77692;PMS5003;66984;47.404;18.836;2023-06-22T02:46:42;18.75;17.50;9.00
77692;PMS5003;66984;47.404;18.836;2023-06-22T02:47:45;18.00;18.00;8.00
77692;PMS5003;66984;47.404;18.836;2023-06-22T02:48:48;18.00;18.00;8.00
77692;PMS5003;66984;47.404;18.836;2023-06-22T02:49:51;19.00;18.75;6.00
77692;PMS5003;66984;47.404;18.836;2023-06-22T02:51:00;19.75;18.75;7.00
77692;PMS5003;66984;47.404;18.836;2023-06-22T02:52:03;18.00;17.00;6.00
77692;PMS5003;66984;47.404;18.836;2023-06-22T02:53:06;19.00;18.00;7.00
77692;PMS5003;66984;47.404;18.836;2023-06-22T02:54:09;19.25;18.00;7.00
77692;PMS5003;66984;47.404;18.836;2023-06-22T02:55:12;20.00;18.00;7.00
77692;PMS5003;66984;47.404;18.836;2023-06-22T02:56:21;17.00;17.00;7.25
77692;PMS5003;66984;47.404;18.836;2023-06-22T02:57:27;18.00;17.00;6.00
77692;PMS5003;66984;47.404;18.836;2023-06-22T02:58:30;17.50;17.00;7.00
77692;PMS5003;66984;47.404;18.836;2023-06-22T02:59:40;16.50;16.50;7.00
77692;PMS5003;66984;47.404;18.836;2023-06-22T03:00:44;19.50;18.00;8.00
77692;PMS5003;66984;47.404;18.836;2023-06-22T03:01:54;19.50;19.00;7.00
77692;PMS5003;66984;47.404;18.836;2023-06-22T03:02:57;17.00;17.00;5.50
77692;PMS5003;66984;47.404;18.836;2023-06-22T03:04:01;18.25;17.00;7.00
77692;PMS5003;66984;47.404;18.836;2023-06-22T03:05:04;17.50;16.50;7.50
77692;PMS5003;66984;47.404;18.836;2023-06-22T03:06:08;16.75;15.75;8.25
77692;PMS5003;66984;47.404;18.836;2023-06-22T03:07:23;17.00;17.00;7.00
77692;PMS5003;66984;47.404;18.836;2023-06-22T03:08:38;17.50;17.50;6.25
77692;PMS5003;66984;47.404;18.836;2023-06-22T03:09:41;16.00;16.00;5.00
77692;PMS5003;66984;47.404;18.836;2023-06-22T03:10:44;18.00;16.00;5.00
77692;PMS5003;66984;47.404;18.836;2023-06-22T03:11:47;15.00;14.00;5.00
77692;PMS5003;66984;47.404;18.836;2023-06-22T03:12:57;16.00;14.00;6.50
77692;PMS5003;66984;47.404;18.836;2023-06-22T03:14:06;17.00;16.00;8.00
77692;PMS5003;66984;47.404;18.836;2023-06-22T03:15:10;18.00;17.00;7.00
77692;PMS5003;66984;47.404;18.836;2023-06-22T03:16:14;18.25;17.00;7.00
77692;PMS5003;66984;47.404;18.836;2023-06-22T03:17:17;17.25;17.00;7.00
77692;PMS5003;66984;47.404;18.836;2023-06-22T03:18:20;16.00;16.00;6.00
77692;PMS5003;66984;47.404;18.836;2023-06-22T03:19:31;17.50;16.50;7.00
77692;PMS5003;66984;47.404;18.836;2023-06-22T03:20:34;20.00;18.00;7.75
77692;PMS5003;66984;47.404;18.836;2023-06-22T03:21:37;20.00;19.00;8.00
77692;PMS5003;66984;47.404;18.836;2023-06-22T03:22:43;17.00;17.00;7.00
77692;PMS5003;66984;47.404;18.836;2023-06-22T03:23:46;16.75;16.50;7.00
77692;PMS5003;66984;47.404;18.836;2023-06-22T03:24:55;19.00;17.50;6.00
77692;PMS5003;66984;47.404;18.836;2023-06-22T03:25:58;18.00;17.00;7.00
77692;PMS5003;66984;47.404;18.836;2023-06-22T03:27:01;17.50;16.00;7.00
77692;PMS5003;66984;47.404;18.836;2023-06-22T03:28:07;19.00;19.00;7.00
77692;PMS5003;66984;47.404;18.836;2023-06-22T03:29:16;17.25;17.25;7.00
77692;PMS5003;66984;47.404;18.836;2023-06-22T03:30:19;19.00;18.25;7.00
77692;PMS5003;66984;47.404;18.836;2023-06-22T03:31:22;17.50;17.50;7.50
77692;PMS5003;66984;47.404;18.836;2023-06-22T03:32:25;19.00;18.50;8.00
77692;PMS5003;66984;47.404;18.836;2023-06-22T03:33:30;19.00;18.00;7.00
77692;PMS5003;66984;47.404;18.836;2023-06-22T03:34:39;18.00;16.00;7.00
77692;PMS5003;66984;47.404;18.836;2023-06-22T03:35:42;18.00;16.00;7.00
77692;PMS5003;66984;47.404;18.836;2023-06-22T03:36:45;19.00;18.00;8.00
77692;PMS5003;66984;47.404;18.836;2023-06-22T03:37:48;20.00;19.00;8.00
77692;PMS5003;66984;47.404;18.836;2023-06-22T03:38:51;19.00;18.25;8.00
77692;PMS5003;66984;47.404;18.836;2023-06-22T03:40:00;19.00;19.00;8.00
77692;PMS5003;66984;47.404;18.836;2023-06-22T03:41:03;21.25;19.25;9.00
77692;PMS5003;66984;47.404;18.836;2023-06-22T03:42:06;19.25;18.00;8.00
77692;PMS5003;66984;47.404;18.836;2023-06-22T03:43:09;20.00;20.00;8.75
77692;PMS5003;66984;47.404;18.836;2023-06-22T03:44:18;20.00;19.00;8.00
77692;PMS5003;66984;47.404;18.836;2023-06-22T03:45:21;21.00;20.75;7.50
77692;PMS5003;66984;47.404;18.836;2023-06-22T03:46:24;19.75;19.00;7.50
77692;PMS5003;66984;47.404;18.836;2023-06-22T03:47:27;16.00;15.00;5.00
77692;PMS5003;66984;47.404;18.836;2023-06-22T03:48:30;17.25;16.00;7.00
77692;PMS5003;66984;47.404;18.836;2023-06-22T03:49:39;18.00;16.00;7.00
77692;PMS5003;66984;47.404;18.836;2023-06-22T03:50:42;14.50;14.50;6.50
77692;PMS5003;66984;47.404;18.836;2023-06-22T03:51:46;13.25;13.25;5.00
77692;PMS5003;66984;47.404;18.836;2023-06-22T03:52:49;16.00;16.00;6.00
77692;PMS5003;66984;47.404;18.836;2023-06-22T03:53:54;16.00;15.00;7.00
77692;PMS5003;66984;47.404;18.836;2023-06-22T03:55:03;17.25;15.75;6.00
77692;PMS5003;66984;47.404;18.836;2023-06-22T03:56:07;17.00;17.00;5.50
77692;PMS5003;66984;47.404;18.836;2023-06-22T03:57:09;18.00;16.00;7.00
77692;PMS5003;66984;47.404;18.836;2023-06-22T03:58:13;17.50;15.00;7.00
77692;PMS5003;66984;47.404;18.836;2023-06-22T03:59:16;17.00;16.00;6.00
77692;PMS5003;66984;47.404;18.836;2023-06-22T04:00:26;15.25;15.00;6.00
77692;PMS5003;66984;47.404;18.836;2023-06-22T04:01:29;15.50;15.00;6.00
77692;PMS5003;66984;47.404;18.836;2023-06-22T04:02:32;15.00;13.50;6.00
77692;PMS5003;66984;47.404;18.836;2023-06-22T04:03:35;16.00;15.25;7.00
77692;PMS5003;66984;47.404;18.836;2023-06-22T04:04:38;14.75;13.00;6.00
77692;PMS5003;66984;47.404;18.836;2023-06-22T04:05:48;16.00;15.00;6.00
77692;PMS5003;66984;47.404;18.836;2023-06-22T04:06:51;15.50;15.00;6.00
77692;PMS5003;66984;47.404;18.836;2023-06-22T04:08:06;17.00;17.00;6.00
77692;PMS5003;66984;47.404;18.836;2023-06-22T04:09:09;17.00;16.00;7.00
77692;PMS5003;66984;47.404;18.836;2023-06-22T04:10:12;15.00;15.00;7.00
77692;PMS5003;66984;47.404;18.836;2023-06-22T04:11:22;16.75;15.00;7.00
77692;PMS5003;66984;47.404;18.836;2023-06-22T04:12:25;19.00;18.00;8.00
77692;PMS5003;66984;47.404;18.836;2023-06-22T04:13:28;17.25;16.25;7.00
77692;PMS5003;66984;47.404;18.836;2023-06-22T04:14:30;20.25;18.00;7.75
77692;PMS5003;66984;47.404;18.836;2023-06-22T04:15:33;18.00;18.00;7.25
77692;PMS5003;66984;47.404;18.836;2023-06-22T04:16:43;21.00;19.00;7.00
77692;PMS5003;66984;47.404;18.836;2023-06-22T04:17:46;19.00;16.00;7.00
77692;PMS5003;66984;47.404;18.836;2023-06-22T04:18:49;17.00;16.00;8.00
77692;PMS5003;66984;47.404;18.836;2023-06-22T04:19:52;17.00;17.00;6.00
77692;PMS5003;66984;47.404;18.836;2023-06-22T04:20:55;18.00;18.00;7.75
77692;PMS5003;66984;47.404;18.836;2023-06-22T04:22:04;18.00;17.75;8.00
77692;PMS5003;66984;47.404;18.836;2023-06-22T04:23:09;19.00;18.00;7.00
77692;PMS5003;66984;47.404;18.836;2023-06-22T04:24:12;18.25;17.25;7.00
77692;PMS5003;66984;47.404;18.836;2023-06-22T04:25:15;17.25;16.00;6.00
77692;PMS5003;66984;47.404;18.836;2023-06-22T04:26:18;18.00;16.00;6.00
77692;PMS5003;66984;47.404;18.836;2023-06-22T04:27:29;17.00;16.00;7.00
77692;PMS5003;66984;47.404;18.836;2023-06-22T04:28:32;17.00;17.00;6.00
77692;PMS5003;66984;47.404;18.836;2023-06-22T04:29:44;17.00;17.00;7.25
77692;PMS5003;66984;47.404;18.836;2023-06-22T04:30:51;18.50;18.50;6.50
77692;PMS5003;66984;47.404;18.836;2023-06-22T04:31:54;16.75;16.75;7.00
77692;PMS5003;66984;47.404;18.836;2023-06-22T04:32:58;17.00;17.00;6.00
77692;PMS5003;66984;47.404;18.836;2023-06-22T04:34:02;19.00;17.00;6.00
77692;PMS5003;66984;47.404;18.836;2023-06-22T04:35:15;17.50;16.25;6.00
77692;PMS5003;66984;47.404;18.836;2023-06-22T04:36:18;18.00;16.00;6.50
77692;PMS5003;66984;47.404;18.836;2023-06-22T04:37:21;18.75;17.75;7.50
77692;PMS5003;66984;47.404;18.836;2023-06-22T04:38:25;19.00;19.00;7.00
77692;PMS5003;66984;47.404;18.836;2023-06-22T04:39:29;18.00;18.00;5.00
77692;PMS5003;66984;47.404;18.836;2023-06-22T04:40:38;17.00;17.00;6.00
77692;PMS5003;66984;47.404;18.836;2023-06-22T04:41:42;18.00;18.00;5.00
77692;PMS5003;66984;47.404;18.836;2023-06-22T04:42:45;18.25;17.00;6.00
77692;PMS5003;66984;47.404;18.836;2023-06-22T04:43:54;17.00;14.00;5.00
77692;PMS5003;66984;47.404;18.836;2023-06-22T04:45:08;14.00;14.00;5.00
77692;PMS5003;66984;47.404;18.836;2023-06-22T04:46:13;15.00;14.75;7.00
77692;PMS5003;66984;47.404;18.836;2023-06-22T04:47:15;20.00;19.00;7.00
77692;PMS5003;66984;47.404;18.836;2023-06-22T04:48:18;17.00;17.00;6.50
77692;PMS5003;66984;47.404;18.836;2023-06-22T04:49:21;16.00;16.00;5.25
77692;PMS5003;66984;47.404;18.836;2023-06-22T04:50:30;17.00;15.00;5.00
77692;PMS5003;66984;47.404;18.836;2023-06-22T04:51:33;18.00;14.00;6.00
77692;PMS5003;66984;47.404;18.836;2023-06-22T04:52:36;18.00;16.50;7.50
77692;PMS5003;66984;47.404;18.836;2023-06-22T04:53:39;18.00;17.00;7.00
77692;PMS5003;66984;47.404;18.836;2023-06-22T04:54:43;18.00;17.00;8.00
77692;PMS5003;66984;47.404;18.836;2023-06-22T04:56:04;18.00;16.00;6.00
77692;PMS5003;66984;47.404;18.836;2023-06-22T04:57:07;19.25;18.00;7.00
77692;PMS5003;66984;47.404;18.836;2023-06-22T04:58:13;18.75;17.00;8.00
77692;PMS5003;66984;47.404;18.836;2023-06-22T04:59:26;18.00;18.00;7.00
77692;PMS5003;66984;47.404;18.836;2023-06-22T05:00:32;19.00;17.00;6.00
77692;PMS5003;66984;47.404;18.836;2023-06-22T05:01:38;17.75;16.75;7.00
77692;PMS5003;66984;47.404;18.836;2023-06-22T05:02:41;17.00;17.00;6.00
77692;PMS5003;66984;47.404;18.836;2023-06-22T05:03:44;17.00;17.00;6.00
77692;PMS5003;66984;47.404;18.836;2023-06-22T05:04:53;19.00;18.00;6.00
77692;PMS5003;66984;47.404;18.836;2023-06-22T05:05:59;17.00;17.00;6.25
77692;PMS5003;66984;47.404;18.836;2023-06-22T05:07:02;17.50;17.00;6.00
77692;PMS5003;66984;47.404;18.836;2023-06-22T05:08:19;18.00;18.00;6.00
77692;PMS5003;66984;47.404;18.836;2023-06-22T05:09:22;14.00;14.00;5.00
77692;PMS5003;66984;47.404;18.836;2023-06-22T05:10:31;16.50;14.50;4.50
77692;PMS5003;66984;47.404;18.836;2023-06-22T05:11:34;17.00;16.00;5.25
77692;PMS5003;66984;47.404;18.836;2023-06-22T05:12:38;15.00;14.00;6.00
77692;PMS5003;66984;47.404;18.836;2023-06-22T05:13:41;17.75;15.00;7.00
77692;PMS5003;66984;47.404;18.836;2023-06-22T05:14:50;18.00;16.00;8.00
77692;PMS5003;66984;47.404;18.836;2023-06-22T05:15:54;17.50;16.00;6.75
77692;PMS5003;66984;47.404;18.836;2023-06-22T05:17:04;18.00;16.00;6.00
77692;PMS5003;66984;47.404;18.836;2023-06-22T05:18:16;15.00;14.00;5.00
77692;PMS5003;66984;47.404;18.836;2023-06-22T05:19:19;15.25;13.75;6.00
77692;PMS5003;66984;47.404;18.836;2023-06-22T05:20:28;18.00;16.00;6.00
77692;PMS5003;66984;47.404;18.836;2023-06-22T05:21:31;17.00;16.00;6.00
77692;PMS5003;66984;47.404;18.836;2023-06-22T05:22:34;15.50;14.50;8.00
77692;PMS5003;66984;47.404;18.836;2023-06-22T05:23:37;15.00;15.00;8.00
77692;PMS5003;66984;47.404;18.836;2023-06-22T05:24:40;14.00;14.00;5.00
77692;PMS5003;66984;47.404;18.836;2023-06-22T05:25:50;15.50;14.50;5.00
77692;PMS5003;66984;47.404;18.836;2023-06-22T05:26:53;17.00;15.00;5.00
77692;PMS5003;66984;47.404;18.836;2023-06-22T05:27:57;17.00;16.00;7.00
77692;PMS5003;66984;47.404;18.836;2023-06-22T05:29:01;17.75;15.75;7.75
77692;PMS5003;66984;47.404;18.836;2023-06-22T05:30:11;19.00;18.00;7.00
77692;PMS5003;66984;47.404;18.836;2023-06-22T05:31:15;19.00;19.00;6.00
77692;PMS5003;66984;47.404;18.836;2023-06-22T05:32:19;18.00;17.00;6.00
77692;PMS5003;66984;47.404;18.836;2023-06-22T05:33:23;19.00;19.00;8.00
77692;PMS5003;66984;47.404;18.836;2023-06-22T05:34:26;17.00;17.00;7.00
77692;PMS5003;66984;47.404;18.836;2023-06-22T05:35:35;17.25;16.25;5.75
77692;PMS5003;66984;47.404;18.836;2023-06-22T05:36:38;21.00;19.00;8.00
77692;PMS5003;66984;47.404;18.836;2023-06-22T05:37:41;20.00;19.00;8.25
77692;PMS5003;66984;47.404;18.836;2023-06-22T05:38:45;18.00;17.25;7.00
77692;PMS5003;66984;47.404;18.836;2023-06-22T05:39:48;19.00;19.00;7.00
77692;PMS5003;66984;47.404;18.836;2023-06-22T05:40:57;19.00;18.00;8.00
77692;PMS5003;66984;47.404;18.836;2023-06-22T05:42:00;18.00;18.00;7.00
77692;PMS5003;66984;47.404;18.836;2023-06-22T05:43:03;18.00;18.00;6.00
77692;PMS5003;66984;47.404;18.836;2023-06-22T05:44:06;19.00;18.00;6.00
77692;PMS5003;66984;47.404;18.836;2023-06-22T05:45:15;19.75;18.00;7.50
77692;PMS5003;66984;47.404;18.836;2023-06-22T05:46:18;18.00;18.00;7.00
77692;PMS5003;66984;47.404;18.836;2023-06-22T05:47:22;19.00;18.00;6.50
77692;PMS5003;66984;47.404;18.836;2023-06-22T05:48:25;20.00;17.50;6.00
77692;PMS5003;66984;47.404;18.836;2023-06-22T05:49:28;19.00;19.00;6.75
77692;PMS5003;66984;47.404;18.836;2023-06-22T05:50:42;19.75;18.00;6.75
77692;PMS5003;66984;47.404;18.836;2023-06-22T05:51:45;18.00;17.00;6.00
77692;PMS5003;66984;47.404;18.836;2023-06-22T05:52:47;18.00;17.00;5.75
77692;PMS5003;66984;47.404;18.836;2023-06-22T05:53:50;16.00;16.00;5.00
77692;PMS5003;66984;47.404;18.836;2023-06-22T05:54:53;13.00;12.00;5.00
77692;PMS5003;66984;47.404;18.836;2023-06-22T05:56:02;16.00;15.75;6.00
77692;PMS5003;66984;47.404;18.836;2023-06-22T05:57:06;13.75;13.75;4.25
77692;PMS5003;66984;47.404;18.836;2023-06-22T05:58:10;11.00;11.00;4.25
77692;PMS5003;66984;47.404;18.836;2023-06-22T05:59:13;11.75;10.00;4.75
77692;PMS5003;66984;47.404;18.836;2023-06-22T06:00:16;13.00;11.50;4.00
77692;PMS5003;66984;47.404;18.836;2023-06-22T06:01:25;10.50;8.25;5.00
77692;PMS5003;66984;47.404;18.836;2023-06-22T06:02:28;10.00;8.00;5.00
77692;PMS5003;66984;47.404;18.836;2023-06-22T06:03:31;8.25;8.00;4.00
77692;PMS5003;66984;47.404;18.836;2023-06-22T06:04:34;10.75;8.00;3.00
77692;PMS5003;66984;47.404;18.836;2023-06-22T06:05:38;14.00;13.25;6.00
77692;PMS5003;66984;47.404;18.836;2023-06-22T06:06:47;16.25;15.00;5.00
77692;PMS5003;66984;47.404;18.836;2023-06-22T06:07:50;15.00;13.00;6.00
77692;PMS5003;66984;47.404;18.836;2023-06-22T06:09:06;10.50;10.00;5.50
77692;PMS5003;66984;47.404;18.836;2023-06-22T06:10:10;8.75;8.75;5.00
77692;PMS5003;66984;47.404;18.836;2023-06-22T06:11:13;9.00;9.00;5.00
77692;PMS5003;66984;47.404;18.836;2023-06-22T06:12:22;9.00;9.00;5.00
77692;PMS5003;66984;47.404;18.836;2023-06-22T06:13:25;11.50;11.50;5.25